Time;durP1;ratioP1;P1;durP2;ratioP2;P2;SDS_P1;SDS_P2;PMS_P1;PMS_P2;Temp;Humidity;BMP_temperature;BMP_pressure;BME280_temperature;BME280_humidity;BME280_pressure;Samples;Min_cycle;Max_cycle;Signal;HPM_P1;HPM_P2
2024/01/13 00:01:54;;;;;;;129.18;61.08;;;16.00;53.80;;;;;;4892848;28;89549;-80
2024/01/13 00:04:20;;;;;;;129.70;60.92;;;16.00;54.00;;;;;;4886985;28;90513;-81
2024/01/13 00:06:45;;;;;;;129.88;60.97;;;16.00;54.00;;;;;;4888164;28;89915;-81
2024/01/13 00:09:11;;;;;;;131.25;60.25;;;16.00;54.10;;;;;;4892274;28;90078;-81
2024/01/13 00:11:37;;;;;;;130.80;60.97;;;15.90;54.10;;;;;;4888803;28;90288;-80
2024/01/13 00:14:03;;;;;;;129.30;60.95;;;15.90;54.10;;;;;;4889529;28;90109;-78
2024/01/13 00:16:28;;;;;;;130.90;61.05;;;15.90;54.70;;;;;;4887031;28;89950;-75
2024/01/13 00:18:54;;;;;;;131.95;60.50;;;15.90;54.10;;;;;;4892977;28;91545;-75
2024/01/13 00:21:20;;;;;;;127.22;60.10;;;15.90;54.10;;;;;;4888108;28;89820;-80
2024/01/13 00:23:45;;;;;;;128.90;60.88;;;15.80;54.20;;;;;;4890545;28;89711;-79
2024/01/13 00:26:11;;;;;;;131.15;60.65;;;15.70;54.20;;;;;;4885629;28;89875;-79
2024/01/13 00:28:37;;;;;;;130.80;60.28;;;15.70;54.20;;;;;;4886996;28;89750;-79
2024/01/13 00:31:06;;;;;;;129.43;60.13;;;15.80;54.30;;;;;;4889849;28;89928;-79
2024/01/13 00:33:32;;;;;;;129.93;60.45;;;15.70;54.30;;;;;;4890026;28;89764;-79
2024/01/13 00:35:58;;;;;;;127.47;59.75;;;15.70;54.30;;;;;;4892407;28;91514;-78
2024/01/13 00:38:23;;;;;;;130.77;60.30;;;15.70;54.30;;;;;;4883957;28;90572;-80
2024/01/13 00:40:49;;;;;;;130.45;59.95;;;15.60;54.30;;;;;;4889058;28;89840;-81
2024/01/13 00:43:15;;;;;;;128.90;59.63;;;15.60;54.40;;;;;;4889788;28;93743;-80
2024/01/13 00:45:41;;;;;;;128.45;59.83;;;15.60;54.40;;;;;;4885404;28;90755;-80
2024/01/13 00:48:06;;;;;;;129.25;60.10;;;15.60;54.60;;;;;;4890357;28;89881;-80
2024/01/13 00:50:33;;;;;;;126.82;59.83;;;15.50;54.60;;;;;;4887450;28;89680;-81
2024/01/13 00:52:58;;;;;;;128.73;60.08;;;15.50;54.60;;;;;;4883628;28;90638;-79
2024/01/13 00:55:24;;;;;;;127.85;59.63;;;15.50;54.60;;;;;;4880931;28;90241;-80
2024/01/13 00:57:50;;;;;;;128.05;59.83;;;15.50;55.20;;;;;;4888981;28;89949;-80
2024/01/13 01:00:15;;;;;;;128.05;59.35;;;15.50;54.70;;;;;;4891281;28;88914;-79
2024/01/13 01:02:41;;;;;;;128.68;59.88;;;15.50;54.70;;;;;;4886851;28;90344;-80
2024/01/13 01:05:07;;;;;;;126.38;59.60;;;15.40;54.80;;;;;;4887564;28;92767;-80
2024/01/13 01:07:32;;;;;;;128.88;59.58;;;15.50;54.80;;;;;;4909963;28;90058;-79
2024/01/13 01:09:58;;;;;;;126.50;59.53;;;15.40;54.70;;;;;;4917354;28;88833;-80
2024/01/13 01:12:24;;;;;;;127.20;59.67;;;15.40;54.80;;;;;;4914473;28;89791;-79
2024/01/13 01:14:49;;;;;;;128.43;59.28;;;15.40;54.90;;;;;;4903344;28;89480;-80
2024/01/13 01:17:15;;;;;;;126.72;59.30;;;15.30;54.90;;;;;;4898375;28;88576;-79
2024/01/13 01:19:41;;;;;;;127.00;59.40;;;15.30;54.90;;;;;;4888842;28;89064;-80
2024/01/13 01:22:06;;;;;;;128.00;59.38;;;15.30;54.90;;;;;;4885042;28;93157;-80
2024/01/13 01:24:32;;;;;;;126.78;59.17;;;15.30;54.80;;;;;;4889703;28;89685;-80
2024/01/13 01:26:57;;;;;;;126.93;59.50;;;15.30;54.90;;;;;;4885961;28;90538;-80
2024/01/13 01:29:23;;;;;;;125.15;59.00;;;15.30;54.90;;;;;;4889993;28;90055;-79
2024/01/13 01:31:49;;;;;;;127.03;58.88;;;15.20;55.00;;;;;;4888657;28;90589;-80
2024/01/13 01:34:14;;;;;;;125.78;58.33;;;15.20;54.90;;;;;;4888669;28;90541;-80
2024/01/13 01:36:40;;;;;;;127.18;58.72;;;15.20;55.00;;;;;;4889378;28;88872;-80
2024/01/13 01:39:06;;;;;;;126.13;58.20;;;15.20;55.00;;;;;;4887135;28;89843;-80
2024/01/13 01:41:32;;;;;;;124.55;58.38;;;15.10;55.10;;;;;;4883840;28;89423;-80
2024/01/13 01:43:57;;;;;;;125.13;58.13;;;15.20;55.10;;;;;;4885866;28;91108;-80
2024/01/13 01:46:24;;;;;;;125.88;58.42;;;15.10;55.10;;;;;;4886082;28;89083;-80
2024/01/13 01:48:58;;;;;;;126.72;58.72;;;15.10;55.20;;;;;;4890759;28;89053;-79
2024/01/13 01:51:25;;;;;;;126.80;58.95;;;15.00;55.20;;;;;;4888360;28;90248;-79
2024/01/13 01:53:52;;;;;;;125.13;58.42;;;15.00;55.20;;;;;;4891542;28;89876;-80
2024/01/13 01:56:22;;;;;;;125.13;58.67;;;15.00;55.20;;;;;;4885472;28;90638;-80
2024/01/13 01:58:51;;;;;;;125.10;58.55;;;15.00;55.30;;;;;;4889581;28;89915;-81
2024/01/13 02:01:17;;;;;;;125.30;58.70;;;15.00;55.30;;;;;;4887184;28;90367;-79
2024/01/13 02:03:43;;;;;;;125.93;58.47;;;15.00;55.40;;;;;;4882655;28;89968;-78
2024/01/13 02:06:10;;;;;;;126.40;59.00;;;15.00;55.40;;;;;;4884128;28;89768;-78
2024/01/13 02:08:40;;;;;;;126.47;58.85;;;15.00;55.50;;;;;;4885161;28;89691;-79
2024/01/13 02:11:06;;;;;;;125.60;58.33;;;14.90;55.40;;;;;;4886715;28;90471;-79
2024/01/13 02:13:32;;;;;;;124.75;58.63;;;15.00;55.50;;;;;;4889307;28;91573;-79
2024/01/13 02:15:58;;;;;;;124.50;57.90;;;14.90;55.40;;;;;;4887180;28;89884;-79
2024/01/13 02:18:23;;;;;;;125.03;58.13;;;14.90;55.50;;;;;;4886530;28;89565;-78
2024/01/13 02:20:49;;;;;;;124.50;57.90;;;14.90;55.50;;;;;;4887995;28;92191;-79
2024/01/13 02:23:15;;;;;;;123.80;58.08;;;14.90;55.60;;;;;;4884222;28;94522;-78
2024/01/13 02:25:40;;;;;;;122.97;57.35;;;14.90;55.60;;;;;;4885228;28;91843;-78
2024/01/13 02:28:06;;;;;;;123.22;57.47;;;14.90;55.60;;;;;;4886737;28;89667;-79
2024/01/13 02:30:31;;;;;;;123.47;57.63;;;14.90;55.60;;;;;;4890493;28;90356;-78
2024/01/13 02:32:57;;;;;;;124.32;57.35;;;14.90;55.60;;;;;;4885224;28;89794;-78
2024/01/13 02:35:23;;;;;;;124.53;57.72;;;14.80;55.60;;;;;;4883772;28;90666;-78
2024/01/13 02:37:48;;;;;;;125.43;58.25;;;14.80;55.70;;;;;;4886443;28;89787;-79
2024/01/13 02:40:14;;;;;;;123.40;57.70;;;14.80;55.70;;;;;;4885118;28;89553;-79
2024/01/13 02:42:40;;;;;;;123.70;57.47;;;14.80;55.70;;;;;;4881158;28;91578;-79
2024/01/13 02:45:06;;;;;;;122.45;57.40;;;14.80;55.80;;;;;;4880176;28;90678;-79
2024/01/13 02:47:45;;;;;;;123.05;57.47;;;14.70;55.70;;;;;;4887823;28;90374;-79
2024/01/13 02:50:13;;;;;;;122.50;57.40;;;14.70;55.80;;;;;;4886194;28;89889;-79
2024/01/13 02:52:40;;;;;;;123.85;57.67;;;14.70;55.80;;;;;;4882971;28;90157;-77
2024/01/13 02:55:06;;;;;;;123.47;57.33;;;14.70;55.80;;;;;;4882830;28;89843;-77
2024/01/13 02:57:32;;;;;;;122.45;57.03;;;14.70;55.90;;;;;;4885920;28;89615;-77
2024/01/13 02:59:58;;;;;;;122.60;56.67;;;14.70;55.90;;;;;;4882263;28;90275;-77
2024/01/13 03:02:23;;;;;;;123.68;57.35;;;14.70;55.80;;;;;;4885432;28;92657;-77
2024/01/13 03:04:49;;;;;;;124.57;57.10;;;14.70;55.90;;;;;;4882426;28;89515;-77
2024/01/13 03:07:14;;;;;;;123.03;57.65;;;14.60;55.90;;;;;;4882135;28;90160;-77
2024/01/13 03:09:40;;;;;;;122.10;56.25;;;14.60;55.90;;;;;;4881001;28;91559;-77
2024/01/13 03:12:06;;;;;;;123.20;56.83;;;14.60;55.90;;;;;;4883954;28;94618;-77
2024/01/13 03:14:32;;;;;;;122.90;56.67;;;14.60;55.90;;;;;;4882325;28;89610;-78
2024/01/13 03:16:58;;;;;;;122.90;56.88;;;14.60;56.00;;;;;;4883174;28;89763;-78
2024/01/13 03:19:24;;;;;;;121.72;56.35;;;14.60;56.00;;;;;;4887574;28;90054;-79
2024/01/13 03:21:49;;;;;;;121.70;56.45;;;14.60;56.00;;;;;;4890419;28;89854;-79
2024/01/13 03:24:15;;;;;;;121.57;57.28;;;14.50;55.90;;;;;;4881967;28;89480;-78
2024/01/13 03:26:41;;;;;;;120.15;56.10;;;14.50;56.00;;;;;;4876963;28;88639;-81
2024/01/13 03:29:06;;;;;;;120.45;56.17;;;14.50;56.10;;;;;;4879941;28;93108;-81
2024/01/13 03:31:32;;;;;;;121.70;57.33;;;14.50;56.00;;;;;;4882053;28;89832;-80
2024/01/13 03:33:58;;;;;;;121.57;55.92;;;14.50;56.00;;;;;;4889323;28;90746;-78
2024/01/13 03:36:23;;;;;;;122.90;56.42;;;14.50;56.10;;;;;;4894090;28;90619;-77
2024/01/13 03:38:49;;;;;;;121.00;56.28;;;14.50;56.20;;;;;;4885676;28;91012;-78
2024/01/13 03:41:18;;;;;;;121.07;56.22;;;14.40;56.70;;;;;;4887464;28;90365;-78
2024/01/13 03:43:44;;;;;;;120.22;55.90;;;14.40;56.10;;;;;;4885153;28;89775;-78
2024/01/13 03:46:10;;;;;;;121.40;56.53;;;14.40;56.10;;;;;;4883829;28;90236;-78
2024/01/13 03:48:35;;;;;;;121.60;56.30;;;14.40;56.10;;;;;;4886214;28;90035;-78
2024/01/13 03:51:01;;;;;;;121.50;56.40;;;14.40;56.20;;;;;;4886110;28;90704;-78
2024/01/13 03:53:28;;;;;;;120.88;56.33;;;14.40;56.20;;;;;;4878567;28;91332;-77
2024/01/13 03:55:54;;;;;;;119.55;55.50;;;14.40;56.20;;;;;;4888705;28;89970;-78
2024/01/13 03:58:20;;;;;;;119.70;56.05;;;14.40;56.30;;;;;;4886182;28;90743;-77
2024/01/13 04:00:46;;;;;;;120.82;56.15;;;14.30;56.30;;;;;;4889015;28;92252;-78
2024/01/13 04:03:12;;;;;;;119.78;55.97;;;14.30;56.30;;;;;;4882431;28;89852;-78
2024/01/13 04:05:37;;;;;;;120.47;56.22;;;14.30;56.30;;;;;;4886300;28;89784;-78
2024/01/13 04:08:03;;;;;;;121.55;56.10;;;14.30;56.30;;;;;;4884634;28;90110;-77
2024/01/13 04:10:29;;;;;;;120.78;55.95;;;14.30;56.30;;;;;;4888484;28;90028;-78
2024/01/13 04:12:58;;;;;;;121.65;56.00;;;14.30;56.40;;;;;;4887177;28;89744;-77
2024/01/13 04:15:24;;;;;;;122.15;56.55;;;14.30;56.40;;;;;;4885925;28;92023;-77
2024/01/13 04:17:50;;;;;;;119.68;55.17;;;14.20;56.40;;;;;;4884868;28;90472;-78
2024/01/13 04:20:15;;;;;;;120.18;55.60;;;14.30;56.40;;;;;;4880832;28;92706;-77
2024/01/13 04:22:41;;;;;;;121.10;55.80;;;14.20;56.30;;;;;;4885884;28;91641;-78
2024/01/13 04:25:07;;;;;;;120.50;55.58;;;14.20;56.40;;;;;;4884413;28;89481;-77
2024/01/13 04:27:32;;;;;;;120.07;55.80;;;14.20;56.50;;;;;;4880077;28;89974;-78
2024/01/13 04:29:58;;;;;;;121.82;55.95;;;14.20;56.60;;;;;;4881502;28;90065;-77
2024/01/13 04:32:23;;;;;;;120.82;55.95;;;14.20;56.60;;;;;;4885291;28;91274;-77
2024/01/13 04:34:49;;;;;;;119.68;55.55;;;14.20;56.60;;;;;;4882316;28;89541;-77
2024/01/13 04:37:16;;;;;;;118.93;55.80;;;14.20;56.60;;;;;;4885800;28;89548;-77
2024/01/13 04:39:41;;;;;;;120.78;56.10;;;14.20;56.70;;;;;;4883775;28;89516;-75
2024/01/13 04:42:07;;;;;;;121.75;57.13;;;14.20;56.70;;;;;;4875713;28;90629;-77
2024/01/13 04:44:33;;;;;;;118.78;55.67;;;14.20;56.70;;;;;;4874766;28;89522;-74
2024/01/13 04:46:58;;;;;;;119.63;55.50;;;14.20;56.70;;;;;;4885557;28;91722;-75
2024/01/13 04:49:24;;;;;;;121.32;56.53;;;14.20;57.30;;;;;;4883075;28;90078;-75
2024/01/13 04:51:50;;;;;;;120.13;55.88;;;14.10;57.20;;;;;;4883263;28;90430;-76
2024/01/13 04:54:15;;;;;;;125.30;56.40;;;14.10;56.80;;;;;;4886044;28;90908;-75
2024/01/13 04:56:41;;;;;;;119.05;55.83;;;14.10;56.80;;;;;;4883402;28;89692;-75
2024/01/13 04:59:07;;;;;;;120.03;55.80;;;14.10;56.90;;;;;;4879470;28;89992;-76
2024/01/13 05:01:33;;;;;;;122.53;56.47;;;14.20;56.90;;;;;;4882097;28;89891;-74
2024/01/13 05:03:58;;;;;;;121.10;56.20;;;14.10;56.80;;;;;;4884168;28;89323;-77
2024/01/13 05:06:24;;;;;;;121.03;56.08;;;14.10;56.80;;;;;;4881543;28;90070;-73
2024/01/13 05:08:50;;;;;;;121.10;56.25;;;14.10;56.80;;;;;;4884591;28;90352;-72
2024/01/13 05:11:19;;;;;;;120.60;55.97;;;14.10;56.90;;;;;;4885458;28;90583;-73
2024/01/13 05:13:44;;;;;;;120.57;56.08;;;14.10;56.90;;;;;;4887073;28;89338;-73
2024/01/13 05:16:10;;;;;;;120.90;55.85;;;14.10;57.00;;;;;;4878455;28;89749;-74
2024/01/13 05:18:36;;;;;;;119.88;56.28;;;14.10;57.00;;;;;;4883742;28;90005;-73
2024/01/13 05:21:02;;;;;;;119.25;55.45;;;14.10;57.10;;;;;;4883142;28;89774;-75
2024/01/13 05:23:27;;;;;;;120.13;55.25;;;14.10;57.10;;;;;;4883172;28;90293;-73
2024/01/13 05:25:53;;;;;;;119.93;55.78;;;14.10;57.10;;;;;;4883147;28;90744;-75
2024/01/13 05:28:19;;;;;;;119.63;55.83;;;14.00;57.00;;;;;;4881326;28;90094;-75
2024/01/13 05:30:45;;;;;;;120.07;56.10;;;14.00;57.00;;;;;;4885333;28;89500;-74
2024/01/13 05:33:10;;;;;;;121.10;55.95;;;14.00;57.00;;;;;;4886176;28;90496;-75
2024/01/13 05:35:36;;;;;;;121.30;56.08;;;14.00;57.00;;;;;;4883288;28;91110;-73
2024/01/13 05:38:01;;;;;;;121.03;56.25;;;14.00;57.00;;;;;;4885549;28;90215;-75
2024/01/13 05:40:27;;;;;;;122.15;56.25;;;14.00;57.00;;;;;;4885225;28;89987;-75
2024/01/13 05:42:53;;;;;;;119.75;56.10;;;14.00;57.00;;;;;;4885745;28;89707;-74
2024/01/13 05:45:18;;;;;;;121.25;56.22;;;14.00;57.00;;;;;;4882581;28;90429;-74
2024/01/13 05:47:44;;;;;;;120.85;56.15;;;14.00;57.00;;;;;;4881124;28;90653;-74
2024/01/13 05:50:10;;;;;;;121.07;56.05;;;14.00;57.00;;;;;;4883605;28;89750;-73
2024/01/13 05:52:36;;;;;;;120.38;56.28;;;14.00;57.00;;;;;;4883893;28;88821;-76
2024/01/13 05:55:03;;;;;;;120.38;56.17;;;14.00;57.00;;;;;;4883588;28;92831;-82
2024/01/13 05:57:29;;;;;;;120.13;56.58;;;13.90;56.90;;;;;;4883160;28;91740;-80
2024/01/13 05:59:54;;;;;;;120.50;56.38;;;14.00;57.00;;;;;;4885795;28;91891;-79
2024/01/13 06:02:20;;;;;;;121.18;56.08;;;14.00;57.00;;;;;;4882924;28;88963;-78
2024/01/13 06:04:49;;;;;;;118.20;55.85;;;13.90;56.90;;;;;;4883244;28;89973;-78
2024/01/13 06:07:15;;;;;;;119.72;56.17;;;13.90;56.90;;;;;;4884382;28;89895;-78
2024/01/13 06:09:41;;;;;;;120.20;56.17;;;13.90;57.00;;;;;;4881441;28;89730;-79
2024/01/13 06:12:07;;;;;;;120.53;55.97;;;13.90;56.90;;;;;;4882167;28;89336;-77
2024/01/13 06:14:33;;;;;;;119.40;55.60;;;13.90;56.90;;;;;;4880790;28;90871;-79
2024/01/13 06:16:59;;;;;;;120.20;55.88;;;13.90;56.90;;;;;;4884344;28;90811;-78
2024/01/13 06:19:24;;;;;;;118.45;56.03;;;13.90;56.90;;;;;;4881105;28;88697;-79
2024/01/13 06:21:50;;;;;;;120.45;55.25;;;13.90;56.90;;;;;;4885149;28;90036;-78
2024/01/13 06:24:16;;;;;;;119.80;55.50;;;13.90;56.90;;;;;;4885566;28;91660;-79
2024/01/13 06:26:42;;;;;;;120.05;55.58;;;13.80;56.90;;;;;;4885624;28;90556;-79
2024/01/13 06:29:09;;;;;;;118.57;55.85;;;13.80;57.00;;;;;;4885163;28;88921;-79
2024/01/13 06:31:35;;;;;;;121.07;56.13;;;13.80;56.90;;;;;;4884183;28;89375;-80
2024/01/13 06:34:00;;;;;;;119.35;56.20;;;13.80;57.00;;;;;;4883452;28;89847;-81
2024/01/13 06:36:26;;;;;;;118.55;55.72;;;13.80;57.00;;;;;;4884423;28;91766;-79
2024/01/13 06:38:52;;;;;;;120.45;56.15;;;13.80;57.50;;;;;;4885339;28;89347;-81
2024/01/13 06:41:17;;;;;;;119.00;55.85;;;13.80;57.00;;;;;;4884781;28;88749;-80
2024/01/13 06:43:43;;;;;;;117.30;55.53;;;13.80;57.00;;;;;;4887726;28;90187;-79
2024/01/13 06:46:09;;;;;;;120.90;55.67;;;13.80;57.00;;;;;;4881242;28;92612;-80
2024/01/13 06:48:34;;;;;;;118.28;55.72;;;13.80;57.00;;;;;;4891600;28;91093;-78
2024/01/13 06:51:00;;;;;;;120.03;55.85;;;13.80;57.00;;;;;;4889812;28;90011;-81
2024/01/13 06:53:26;;;;;;;120.47;55.92;;;13.80;57.10;;;;;;4894920;28;90846;-80
2024/01/13 06:55:52;;;;;;;118.82;56.00;;;13.80;57.00;;;;;;4889727;28;88903;-78
2024/01/13 06:58:18;;;;;;;118.43;55.90;;;13.70;57.00;;;;;;4914822;28;88688;-78
2024/01/13 07:00:44;;;;;;;120.72;56.25;;;13.70;57.00;;;;;;4916792;28;88746;-78
2024/01/13 07:03:09;;;;;;;119.07;56.08;;;13.70;57.00;;;;;;4916250;28;89799;-78
2024/01/13 07:05:35;;;;;;;123.35;56.28;;;13.80;57.10;;;;;;4898457;28;88743;-77
2024/01/13 07:08:00;;;;;;;118.18;55.67;;;13.80;57.00;;;;;;4883138;28;89890;-78
2024/01/13 07:10:29;;;;;;;118.80;55.90;;;13.70;57.00;;;;;;4888024;28;93195;-77
2024/01/13 07:12:56;;;;;;;118.50;55.83;;;13.70;57.10;;;;;;4887108;28;91578;-78
2024/01/13 07:15:22;;;;;;;119.32;56.33;;;13.70;57.10;;;;;;4885284;28;90566;-78
2024/01/13 07:17:47;;;;;;;120.82;56.30;;;13.70;57.00;;;;;;4888403;28;89307;-78
2024/01/13 07:20:13;;;;;;;119.78;56.22;;;13.60;56.80;;;;;;4887445;28;89496;-78
2024/01/13 07:22:39;;;;;;;119.05;55.90;;;13.60;56.90;;;;;;4884963;28;90403;-78
2024/01/13 07:25:06;;;;;;;120.40;56.08;;;13.60;57.10;;;;;;4886845;28;89587;-78
2024/01/13 07:27:32;;;;;;;133.93;59.90;;;13.60;57.10;;;;;;4885654;28;91204;-78
2024/01/13 07:30:01;;;;;;;140.88;66.32;;;13.60;57.30;;;;;;4891121;28;88762;-78
2024/01/13 07:32:27;;;;;;;150.02;76.10;;;13.70;57.20;;;;;;4887300;28;90691;-78
2024/01/13 07:34:53;;;;;;;140.95;71.90;;;13.90;57.30;;;;;;4887782;28;89421;-78
2024/01/13 07:37:18;;;;;;;144.77;69.40;;;14.00;57.10;;;;;;4878985;28;91186;-80
2024/01/13 07:39:44;;;;;;;136.23;68.55;;;14.20;57.30;;;;;;4879092;28;89433;-80
2024/01/13 07:42:10;;;;;;;139.02;68.03;;;14.30;56.80;;;;;;4881402;28;90092;-79
2024/01/13 07:44:35;;;;;;;135.18;66.55;;;14.40;56.10;;;;;;4886867;28;92075;-79
2024/01/13 07:47:03;;;;;;;138.68;67.22;;;14.40;56.70;;;;;;4878884;28;90066;-81
2024/01/13 07:49:29;;;;;;;134.93;66.68;;;14.50;56.50;;;;;;4881929;28;89950;-80
2024/01/13 07:51:56;;;;;;;136.25;65.50;;;14.50;56.40;;;;;;4885098;28;90906;-78
2024/01/13 07:54:25;;;;;;;133.32;63.83;;;14.60;56.30;;;;;;4886960;28;90116;-79
2024/01/13 07:56:52;;;;;;;130.57;64.32;;;14.50;56.20;;;;;;4882340;28;89838;-80
2024/01/13 07:59:18;;;;;;;130.85;63.72;;;14.60;56.10;;;;;;4882092;28;89940;-80
2024/01/13 08:01:45;;;;;;;133.27;63.35;;;14.60;55.90;;;;;;4885295;28;91013;-79
2024/01/13 08:04:12;;;;;;;130.18;63.40;;;14.60;55.90;;;;;;4886015;28;90415;-80
2024/01/13 08:06:38;;;;;;;132.07;63.50;;;14.60;55.80;;;;;;4885439;28;89563;-80
2024/01/13 08:09:04;;;;;;;130.35;64.03;;;14.60;55.90;;;;;;4883936;28;90078;-80
2024/01/13 08:11:30;;;;;;;134.75;63.15;;;14.60;56.20;;;;;;4882365;28;90573;-80
2024/01/13 08:13:58;;;;;;;130.98;63.17;;;14.60;56.70;;;;;;4885300;28;89938;-80
2024/01/13 08:16:24;;;;;;;133.57;62.00;;;14.60;57.00;;;;;;4885823;28;89348;-80
2024/01/13 08:18:49;;;;;;;132.00;62.60;;;14.70;56.70;;;;;;4888164;28;88742;-81
2024/01/13 08:21:15;;;;;;;127.90;61.17;;;14.70;56.50;;;;;;4892317;28;91421;-79
2024/01/13 08:23:41;;;;;;;128.82;61.30;;;14.70;56.30;;;;;;4908154;28;92259;-79
2024/01/13 08:26:07;;;;;;;131.90;61.35;;;14.70;56.10;;;;;;4913210;28;90345;-80
2024/01/13 08:28:33;;;;;;;128.25;60.63;;;14.70;56.10;;;;;;4911745;28;89495;-80
2024/01/13 08:30:59;;;;;;;125.90;60.72;;;14.70;56.10;;;;;;4900149;28;91113;-80
2024/01/13 08:33:25;;;;;;;129.88;60.55;;;14.70;56.10;;;;;;4888005;28;89911;-79
2024/01/13 08:35:51;;;;;;;126.97;60.70;;;14.70;56.00;;;;;;4888458;28;89981;-79
2024/01/13 08:38:16;;;;;;;126.93;60.22;;;14.70;55.90;;;;;;4884014;28;91610;-80
2024/01/13 08:40:45;;;;;;;127.05;60.85;;;14.60;55.90;;;;;;4888232;28;91602;-76
2024/01/13 08:43:11;;;;;;;130.10;60.20;;;14.60;56.40;;;;;;4883523;28;90093;-78
2024/01/13 08:45:37;;;;;;;139.27;67.65;;;14.60;57.00;;;;;;4876963;28;90124;-78
2024/01/13 08:48:03;;;;;;;138.35;67.05;;;14.70;57.30;;;;;;4885499;28;89716;-77
2024/01/13 08:50:29;;;;;;;132.75;65.38;;;14.70;57.40;;;;;;4884704;28;91258;-78
2024/01/13 08:52:55;;;;;;;133.90;65.45;;;14.70;57.40;;;;;;4883876;28;91764;-78
2024/01/13 08:55:24;;;;;;;133.45;64.47;;;14.80;57.40;;;;;;4873514;28;94677;-80
2024/01/13 08:57:50;;;;;;;149.80;69.43;;;14.90;57.90;;;;;;4854723;28;91000;-77
2024/01/13 09:00:17;;;;;;;265.75;108.38;;;14.90;57.50;;;;;;4839940;28;90092;-81
2024/01/13 09:02:44;;;;;;;202.38;85.30;;;14.90;58.60;;;;;;4869781;28;91605;-80
2024/01/13 09:05:10;;;;;;;190.90;82.10;;;14.90;59.10;;;;;;4872545;28;91302;-84
2024/01/13 09:07:40;;;;;;;254.98;107.38;;;15.00;59.50;;;;;;4885985;28;89171;-79
2024/01/13 09:10:07;;;;;;;350.73;134.40;;;15.10;59.10;;;;;;4879732;28;90244;-80
2024/01/13 09:12:34;;;;;;;273.70;108.15;;;15.20;59.70;;;;;;4885966;28;90828;-81
2024/01/13 09:15:01;;;;;;;215.98;91.43;;;15.20;59.70;;;;;;4882448;28;90596;-80
2024/01/13 09:17:28;;;;;;;215.32;88.20;;;15.30;58.70;;;;;;4883102;28;89726;-79
2024/01/13 09:19:54;;;;;;;193.25;82.40;;;15.30;57.90;;;;;;4886327;28;90109;-81
2024/01/13 09:22:20;;;;;;;190.38;80.38;;;15.30;57.50;;;;;;4890157;28;90124;-80
2024/01/13 09:24:46;;;;;;;179.52;77.97;;;15.40;57.80;;;;;;4869723;28;95182;-78
2024/01/13 09:27:13;;;;;;;171.25;76.28;;;15.40;57.00;;;;;;4881662;28;90049;-77
2024/01/13 09:29:39;;;;;;;165.23;73.82;;;15.40;56.60;;;;;;4883233;28;90540;-76
2024/01/13 09:32:05;;;;;;;170.70;73.47;;;15.40;56.90;;;;;;4878134;28;89939;-77
2024/01/13 09:34:31;;;;;;;166.10;72.57;;;15.40;56.20;;;;;;4879365;28;90244;-77
2024/01/13 09:36:57;;;;;;;158.35;70.40;;;15.50;55.90;;;;;;4884403;28;90802;-77
2024/01/13 09:39:22;;;;;;;156.98;70.15;;;15.50;55.60;;;;;;4879647;28;90722;-77
2024/01/13 09:41:48;;;;;;;160.63;68.95;;;15.50;55.40;;;;;;4882479;28;90589;-78
2024/01/13 09:44:16;;;;;;;150.23;68.22;;;15.50;55.10;;;;;;4883076;28;89316;-77
2024/01/13 09:46:42;;;;;;;149.25;67.65;;;15.50;54.80;;;;;;4886666;28;89867;-77
2024/01/13 09:49:14;;;;;;;153.93;69.18;;;15.60;54.70;;;;;;4880727;28;91830;-76
2024/01/13 09:51:40;;;;;;;150.15;68.20;;;15.60;54.50;;;;;;4882796;28;89993;-76
2024/01/13 09:54:11;;;;;;;142.73;66.60;;;15.60;54.40;;;;;;4882718;28;89741;-76
2024/01/13 09:56:44;;;;;;;149.73;67.07;;;15.60;54.40;;;;;;4877732;28;89881;-74
2024/01/13 09:59:11;;;;;;;143.85;64.72;;;15.60;54.10;;;;;;4879286;28;91039;-75
2024/01/13 10:01:37;;;;;;;144.02;64.68;;;15.60;53.90;;;;;;4879423;28;89901;-74
2024/01/13 10:04:02;;;;;;;145.52;64.80;;;15.60;53.80;;;;;;4880281;28;90527;-74
2024/01/13 10:06:32;;;;;;;146.35;65.38;;;15.70;53.50;;;;;;4877696;28;90717;-77
2024/01/13 10:08:58;;;;;;;144.45;62.80;;;15.70;53.40;;;;;;4876834;28;89966;-75
2024/01/13 10:11:24;;;;;;;140.20;63.20;;;15.60;53.20;;;;;;4879692;28;90151;-75
2024/01/13 10:14:05;;;;;;;138.18;62.60;;;15.60;53.80;;;;;;4880149;28;90496;-74
2024/01/13 10:16:33;;;;;;;141.23;63.72;;;15.60;54.10;;;;;;4879029;28;89662;-74
2024/01/13 10:19:00;;;;;;;139.48;63.03;;;15.60;54.10;;;;;;4867727;28;90353;-74
2024/01/13 10:21:25;;;;;;;140.20;64.35;;;15.60;55.30;;;;;;4879769;28;89685;-76
2024/01/13 10:23:57;;;;;;;145.00;65.13;;;15.70;55.10;;;;;;4880506;28;89438;-76
2024/01/13 10:26:24;;;;;;;144.02;65.07;;;15.60;55.30;;;;;;4878689;28;90222;-74
2024/01/13 10:28:50;;;;;;;142.85;64.32;;;15.70;55.70;;;;;;4881363;28;91124;-73
2024/01/13 10:31:20;;;;;;;139.77;64.13;;;15.90;55.90;;;;;;4886689;28;95512;-76
2024/01/13 10:33:49;;;;;;;147.65;65.15;;;16.00;55.50;;;;;;4883693;28;90532;-74
2024/01/13 10:36:16;;;;;;;142.88;66.10;;;16.10;55.70;;;;;;4887796;28;89917;-74
2024/01/13 10:38:43;;;;;;;138.18;64.35;;;16.20;55.30;;;;;;4880908;28;91093;-74
2024/01/13 10:41:12;;;;;;;144.32;65.97;;;16.30;55.10;;;;;;4881717;28;90598;-74
2024/01/13 10:43:42;;;;;;;144.07;65.43;;;16.30;54.80;;;;;;4884769;28;89875;-75
2024/01/13 10:46:12;;;;;;;142.70;66.10;;;16.40;54.40;;;;;;4885604;28;88835;-75
2024/01/13 10:48:43;;;;;;;139.65;64.85;;;16.50;54.10;;;;;;4883020;28;90495;-75
2024/01/13 10:51:34;;;;;;;141.57;65.35;;;16.60;54.10;;;;;;4881700;28;91043;-76
2024/01/13 10:54:01;;;;;;;142.10;66.07;;;16.60;53.80;;;;;;4876959;28;90916;-75
2024/01/13 10:56:31;;;;;;;140.98;66.20;;;16.70;53.60;;;;;;4886303;28;89470;-76
2024/01/13 10:58:58;;;;;;;139.18;65.93;;;16.70;53.60;;;;;;4881145;28;90537;-75
2024/01/13 11:01:26;;;;;;;143.38;65.30;;;16.80;53.50;;;;;;4884222;28;91067;-75
2024/01/13 11:03:54;;;;;;;140.70;65.75;;;16.80;53.30;;;;;;4876009;28;90982;-75
2024/01/13 11:06:21;;;;;;;144.60;65.68;;;16.80;53.30;;;;;;4880938;28;89574;-75
2024/01/13 11:08:47;;;;;;;137.77;65.93;;;16.80;53.30;;;;;;4883481;28;90828;-80
2024/01/13 11:11:39;;;;;;;144.32;66.13;;;16.80;53.40;;;;;;4899955;28;93467;-77
2024/01/13 11:14:11;;;;;;;139.35;65.85;;;16.90;53.30;;;;;;4878945;28;89486;-81
2024/01/13 11:16:38;;;;;;;141.45;66.28;;;16.90;53.30;;;;;;4885731;28;89592;-83
2024/01/13 11:19:07;;;;;;;139.57;66.00;;;16.90;53.10;;;;;;4882476;28;92368;-78
2024/01/13 11:21:33;;;;;;;140.80;66.43;;;17.00;53.00;;;;;;4882036;28;92183;-80
2024/01/13 11:24:07;;;;;;;141.20;65.88;;;17.00;52.90;;;;;;4885851;28;90225;-81
2024/01/13 11:26:42;;;;;;;138.68;65.45;;;17.00;52.80;;;;;;4880609;28;89987;-87
2024/01/13 11:29:24;;;;;;;138.07;64.97;;;17.10;52.80;;;;;;4885215;28;89475;-78
2024/01/13 11:31:58;;;;;;;139.60;64.75;;;17.10;53.00;;;;;;4880746;28;90063;-76
2024/01/13 11:34:26;;;;;;;137.15;64.22;;;17.10;52.90;;;;;;4884947;28;90371;-77
2024/01/13 11:36:56;;;;;;;136.73;63.92;;;17.10;52.60;;;;;;4885797;28;89702;-77
2024/01/13 11:39:22;;;;;;;137.35;64.18;;;17.10;52.30;;;;;;4882722;28;90731;-77
2024/01/13 11:41:52;;;;;;;141.02;64.65;;;17.10;52.10;;;;;;4884593;28;89998;-77
2024/01/13 11:44:35;;;;;;;137.93;63.88;;;17.10;52.20;;;;;;4889274;28;90551;-80
2024/01/13 11:47:09;;;;;;;138.13;63.75;;;17.10;52.10;;;;;;4885937;28;90136;-81
2024/01/13 11:49:45;;;;;;;135.48;62.53;;;17.10;52.10;;;;;;4883315;28;92257;-78
2024/01/13 11:52:13;;;;;;;138.38;63.28;;;17.20;52.60;;;;;;4883076;28;90866;-74
2024/01/13 11:54:40;;;;;;;136.05;63.60;;;17.30;53.00;;;;;;4885294;28;90321;-80
2024/01/13 11:57:18;;;;;;;139.35;63.28;;;17.30;53.00;;;;;;4880888;28;90256;-76
2024/01/13 11:59:45;;;;;;;136.43;63.25;;;17.40;52.90;;;;;;4883312;28;92637;-73
2024/01/13 12:02:11;;;;;;;137.32;63.92;;;17.40;52.80;;;;;;4882236;28;89901;-77
2024/01/13 12:04:40;;;;;;;138.48;63.35;;;17.30;53.30;;;;;;4880430;28;89811;-76
2024/01/13 12:07:08;;;;;;;143.77;63.85;;;17.30;53.20;;;;;;4881253;28;89437;-77
2024/01/13 12:09:34;;;;;;;134.90;61.78;;;17.20;53.10;;;;;;4867872;28;91582;-80
2024/01/13 12:12:02;;;;;;;135.40;63.08;;;17.10;53.30;;;;;;4879105;28;94150;-80
2024/01/13 12:14:36;;;;;;;136.13;62.75;;;17.00;53.30;;;;;;4886190;28;89735;-79
2024/01/13 12:17:03;;;;;;;135.48;62.65;;;16.90;52.90;;;;;;4882712;28;89815;-79